sensor_id;sensor_type;location;lat;lon;timestamp;P1;durP1;ratioP1;P2;durP2;ratioP2
75021;SDS011;63583;49.976;20.182;2023-11-21T00:01:02;8.48;;;5.20;;
75021;SDS011;63583;49.976;20.182;2023-11-21T00:03:39;8.38;;;4.70;;
75021;SDS011;63583;49.976;20.182;2023-11-21T00:06:05;7.38;;;4.18;;
75021;SDS011;63583;49.976;20.182;2023-11-21T00:08:35;9.23;;;4.60;;
75021;SDS011;63583;49.976;20.182;2023-11-21T00:11:01;8.40;;;4.82;;
75021;SDS011;63583;49.976;20.182;2023-11-21T00:13:31;9.35;;;4.93;;
75021;SDS011;63583;49.976;20.182;2023-11-21T00:15:57;8.85;;;4.40;;
75021;SDS011;63583;49.976;20.182;2023-11-21T00:18:24;9.27;;;4.47;;
75021;SDS011;63583;49.976;20.182;2023-11-21T00:20:49;8.25;;;4.60;;
75021;SDS011;63583;49.976;20.182;2023-11-21T00:23:15;10.60;;;4.30;;
75021;SDS011;63583;49.976;20.182;2023-11-21T00:25:41;9.65;;;4.80;;
75021;SDS011;63583;49.976;20.182;2023-11-21T00:28:07;9.07;;;4.35;;
75021;SDS011;63583;49.976;20.182;2023-11-21T00:30:32;6.55;;;3.72;;
75021;SDS011;63583;49.976;20.182;2023-11-21T00:32:58;7.55;;;4.00;;
75021;SDS011;63583;49.976;20.182;2023-11-21T00:35:24;7.18;;;3.88;;
75021;SDS011;63583;49.976;20.182;2023-11-21T00:37:50;5.75;;;3.85;;
75021;SDS011;63583;49.976;20.182;2023-11-21T00:40:16;8.63;;;3.88;;
75021;SDS011;63583;49.976;20.182;2023-11-21T00:42:45;6.13;;;3.60;;
75021;SDS011;63583;49.976;20.182;2023-11-21T00:45:11;6.82;;;4.03;;
75021;SDS011;63583;49.976;20.182;2023-11-21T00:47:37;8.50;;;3.80;;
75021;SDS011;63583;49.976;20.182;2023-11-21T00:50:04;6.80;;;3.85;;
75021;SDS011;63583;49.976;20.182;2023-11-21T00:52:32;8.02;;;3.55;;
75021;SDS011;63583;49.976;20.182;2023-11-21T00:54:57;7.13;;;4.13;;
75021;SDS011;63583;49.976;20.182;2023-11-21T00:57:26;8.13;;;4.28;;
75021;SDS011;63583;49.976;20.182;2023-11-21T00:59:52;7.57;;;4.30;;
75021;SDS011;63583;49.976;20.182;2023-11-21T01:02:18;9.20;;;4.22;;
75021;SDS011;63583;49.976;20.182;2023-11-21T01:04:43;6.82;;;4.30;;
75021;SDS011;63583;49.976;20.182;2023-11-21T01:07:09;7.93;;;4.10;;
75021;SDS011;63583;49.976;20.182;2023-11-21T01:09:35;7.47;;;4.63;;
75021;SDS011;63583;49.976;20.182;2023-11-21T01:12:01;7.20;;;4.63;;
75021;SDS011;63583;49.976;20.182;2023-11-21T01:14:27;7.65;;;4.85;;
75021;SDS011;63583;49.976;20.182;2023-11-21T01:16:53;8.90;;;4.78;;
75021;SDS011;63583;49.976;20.182;2023-11-21T01:19:19;8.23;;;4.88;;
75021;SDS011;63583;49.976;20.182;2023-11-21T01:21:45;6.72;;;4.30;;
75021;SDS011;63583;49.976;20.182;2023-11-21T01:24:11;8.68;;;4.35;;
75021;SDS011;63583;49.976;20.182;2023-11-21T01:26:36;6.47;;;4.20;;
75021;SDS011;63583;49.976;20.182;2023-11-21T01:29:02;8.20;;;4.30;;
75021;SDS011;63583;49.976;20.182;2023-11-21T01:31:28;11.02;;;4.35;;
75021;SDS011;63583;49.976;20.182;2023-11-21T01:33:55;10.15;;;4.13;;
75021;SDS011;63583;49.976;20.182;2023-11-21T01:36:21;7.22;;;4.90;;
75021;SDS011;63583;49.976;20.182;2023-11-21T01:38:47;8.32;;;4.78;;
75021;SDS011;63583;49.976;20.182;2023-11-21T01:41:16;7.25;;;3.92;;
75021;SDS011;63583;49.976;20.182;2023-11-21T01:43:41;8.10;;;4.22;;
75021;SDS011;63583;49.976;20.182;2023-11-21T01:46:08;7.88;;;4.32;;
75021;SDS011;63583;49.976;20.182;2023-11-21T01:48:34;9.82;;;4.70;;
75021;SDS011;63583;49.976;20.182;2023-11-21T01:51:00;9.50;;;4.97;;
75021;SDS011;63583;49.976;20.182;2023-11-21T01:53:27;7.90;;;4.40;;
75021;SDS011;63583;49.976;20.182;2023-11-21T01:55:54;6.72;;;4.68;;
75021;SDS011;63583;49.976;20.182;2023-11-21T01:58:20;7.15;;;4.28;;
75021;SDS011;63583;49.976;20.182;2023-11-21T02:00:47;7.85;;;5.10;;
75021;SDS011;63583;49.976;20.182;2023-11-21T02:03:16;8.95;;;5.40;;
75021;SDS011;63583;49.976;20.182;2023-11-21T02:05:42;10.50;;;4.78;;
75021;SDS011;63583;49.976;20.182;2023-11-21T02:08:08;10.02;;;5.25;;
75021;SDS011;63583;49.976;20.182;2023-11-21T02:10:35;12.75;;;5.68;;
75021;SDS011;63583;49.976;20.182;2023-11-21T02:13:02;10.77;;;5.50;;
75021;SDS011;63583;49.976;20.182;2023-11-21T02:15:28;9.05;;;5.43;;
75021;SDS011;63583;49.976;20.182;2023-11-21T02:17:57;11.25;;;5.07;;
75021;SDS011;63583;49.976;20.182;2023-11-21T02:20:24;7.32;;;4.78;;
75021;SDS011;63583;49.976;20.182;2023-11-21T02:22:52;8.32;;;4.50;;
75021;SDS011;63583;49.976;20.182;2023-11-21T02:25:26;7.18;;;4.13;;
75021;SDS011;63583;49.976;20.182;2023-11-21T02:27:53;4.90;;;3.55;;
75021;SDS011;63583;49.976;20.182;2023-11-21T02:30:23;8.18;;;3.70;;
75021;SDS011;63583;49.976;20.182;2023-11-21T02:32:50;10.05;;;4.20;;
75021;SDS011;63583;49.976;20.182;2023-11-21T02:35:19;7.60;;;4.05;;
75021;SDS011;63583;49.976;20.182;2023-11-21T02:37:48;6.57;;;4.22;;
75021;SDS011;63583;49.976;20.182;2023-11-21T02:40:14;7.00;;;4.38;;
75021;SDS011;63583;49.976;20.182;2023-11-21T02:42:46;7.85;;;4.50;;
75021;SDS011;63583;49.976;20.182;2023-11-21T02:45:14;7.47;;;4.40;;
75021;SDS011;63583;49.976;20.182;2023-11-21T02:47:42;8.23;;;4.32;;
75021;SDS011;63583;49.976;20.182;2023-11-21T02:50:08;8.52;;;4.30;;
75021;SDS011;63583;49.976;20.182;2023-11-21T02:52:37;8.38;;;4.30;;
75021;SDS011;63583;49.976;20.182;2023-11-21T02:55:04;7.15;;;4.20;;
75021;SDS011;63583;49.976;20.182;2023-11-21T02:57:30;9.02;;;4.35;;
75021;SDS011;63583;49.976;20.182;2023-11-21T02:59:56;7.40;;;3.45;;
75021;SDS011;63583;49.976;20.182;2023-11-21T03:02:21;10.23;;;4.38;;
75021;SDS011;63583;49.976;20.182;2023-11-21T03:04:48;7.80;;;4.50;;
75021;SDS011;63583;49.976;20.182;2023-11-21T03:07:14;6.07;;;3.80;;
75021;SDS011;63583;49.976;20.182;2023-11-21T03:09:41;7.53;;;4.15;;
75021;SDS011;63583;49.976;20.182;2023-11-21T03:12:06;9.05;;;4.07;;
75021;SDS011;63583;49.976;20.182;2023-11-21T03:14:34;9.25;;;4.32;;
75021;SDS011;63583;49.976;20.182;2023-11-21T03:17:00;7.00;;;3.80;;
75021;SDS011;63583;49.976;20.182;2023-11-21T03:19:26;7.50;;;4.18;;
75021;SDS011;63583;49.976;20.182;2023-11-21T03:21:51;8.15;;;3.65;;
75021;SDS011;63583;49.976;20.182;2023-11-21T03:24:18;5.90;;;3.45;;
75021;SDS011;63583;49.976;20.182;2023-11-21T03:26:45;7.45;;;3.75;;
75021;SDS011;63583;49.976;20.182;2023-11-21T03:29:12;8.43;;;4.00;;
75021;SDS011;63583;49.976;20.182;2023-11-21T03:31:38;7.40;;;3.70;;
75021;SDS011;63583;49.976;20.182;2023-11-21T03:34:04;9.48;;;4.10;;
75021;SDS011;63583;49.976;20.182;2023-11-21T03:36:30;6.75;;;3.63;;
75021;SDS011;63583;49.976;20.182;2023-11-21T03:38:56;7.18;;;3.50;;
75021;SDS011;63583;49.976;20.182;2023-11-21T03:41:21;9.32;;;4.50;;
75021;SDS011;63583;49.976;20.182;2023-11-21T03:43:47;6.68;;;3.63;;
75021;SDS011;63583;49.976;20.182;2023-11-21T03:46:13;6.75;;;3.90;;
75021;SDS011;63583;49.976;20.182;2023-11-21T03:48:39;8.50;;;3.90;;
75021;SDS011;63583;49.976;20.182;2023-11-21T03:51:05;6.75;;;3.58;;
75021;SDS011;63583;49.976;20.182;2023-11-21T03:53:31;6.25;;;3.28;;
75021;SDS011;63583;49.976;20.182;2023-11-21T03:55:57;7.05;;;3.05;;
75021;SDS011;63583;49.976;20.182;2023-11-21T03:58:23;6.38;;;3.50;;
75021;SDS011;63583;49.976;20.182;2023-11-21T04:00:49;5.38;;;3.35;;
75021;SDS011;63583;49.976;20.182;2023-11-21T04:03:15;6.82;;;3.25;;
75021;SDS011;63583;49.976;20.182;2023-11-21T04:05:40;6.72;;;3.38;;
75021;SDS011;63583;49.976;20.182;2023-11-21T04:08:06;4.88;;;3.20;;
75021;SDS011;63583;49.976;20.182;2023-11-21T04:10:32;6.32;;;3.65;;
75021;SDS011;63583;49.976;20.182;2023-11-21T04:12:58;5.78;;;3.50;;
75021;SDS011;63583;49.976;20.182;2023-11-21T04:15:25;5.80;;;3.78;;
75021;SDS011;63583;49.976;20.182;2023-11-21T04:17:51;8.40;;;4.05;;
75021;SDS011;63583;49.976;20.182;2023-11-21T04:20:17;6.82;;;3.35;;
75021;SDS011;63583;49.976;20.182;2023-11-21T04:22:44;5.88;;;3.75;;
75021;SDS011;63583;49.976;20.182;2023-11-21T04:25:10;6.40;;;3.58;;
75021;SDS011;63583;49.976;20.182;2023-11-21T04:27:38;9.05;;;3.85;;
75021;SDS011;63583;49.976;20.182;2023-11-21T04:30:05;7.70;;;3.78;;
75021;SDS011;63583;49.976;20.182;2023-11-21T04:32:31;8.25;;;4.28;;
75021;SDS011;63583;49.976;20.182;2023-11-21T04:34:57;6.20;;;3.60;;
75021;SDS011;63583;49.976;20.182;2023-11-21T04:37:23;8.05;;;3.35;;
75021;SDS011;63583;49.976;20.182;2023-11-21T04:39:49;6.40;;;3.55;;
75021;SDS011;63583;49.976;20.182;2023-11-21T04:42:15;8.18;;;4.03;;
75021;SDS011;63583;49.976;20.182;2023-11-21T04:44:41;6.28;;;3.85;;
75021;SDS011;63583;49.976;20.182;2023-11-21T04:47:07;8.82;;;3.42;;
75021;SDS011;63583;49.976;20.182;2023-11-21T04:49:33;6.72;;;3.53;;
75021;SDS011;63583;49.976;20.182;2023-11-21T04:51:59;8.13;;;3.97;;
75021;SDS011;63583;49.976;20.182;2023-11-21T04:54:25;5.93;;;3.25;;
75021;SDS011;63583;49.976;20.182;2023-11-21T04:56:51;7.85;;;3.88;;
75021;SDS011;63583;49.976;20.182;2023-11-21T04:59:17;5.72;;;3.63;;
75021;SDS011;63583;49.976;20.182;2023-11-21T05:01:43;7.68;;;3.83;;
75021;SDS011;63583;49.976;20.182;2023-11-21T05:04:09;6.40;;;3.80;;
75021;SDS011;63583;49.976;20.182;2023-11-21T05:06:34;7.97;;;4.30;;
75021;SDS011;63583;49.976;20.182;2023-11-21T05:09:00;6.60;;;4.20;;
75021;SDS011;63583;49.976;20.182;2023-11-21T05:11:26;9.15;;;4.55;;
75021;SDS011;63583;49.976;20.182;2023-11-21T05:13:54;7.25;;;3.78;;
75021;SDS011;63583;49.976;20.182;2023-11-21T05:16:22;8.25;;;4.18;;
75021;SDS011;63583;49.976;20.182;2023-11-21T05:18:47;8.45;;;4.70;;
75021;SDS011;63583;49.976;20.182;2023-11-21T05:21:16;8.60;;;4.22;;
75021;SDS011;63583;49.976;20.182;2023-11-21T05:23:41;9.23;;;4.57;;
75021;SDS011;63583;49.976;20.182;2023-11-21T05:26:07;7.05;;;4.30;;
75021;SDS011;63583;49.976;20.182;2023-11-21T05:28:33;9.20;;;4.07;;
75021;SDS011;63583;49.976;20.182;2023-11-21T05:30:59;7.15;;;4.35;;
75021;SDS011;63583;49.976;20.182;2023-11-21T05:33:25;8.48;;;4.55;;
75021;SDS011;63583;49.976;20.182;2023-11-21T05:35:50;10.38;;;5.40;;
75021;SDS011;63583;49.976;20.182;2023-11-21T05:38:16;10.00;;;4.72;;
75021;SDS011;63583;49.976;20.182;2023-11-21T05:40:42;9.48;;;5.90;;
75021;SDS011;63583;49.976;20.182;2023-11-21T05:43:09;12.60;;;5.28;;
75021;SDS011;63583;49.976;20.182;2023-11-21T05:45:34;11.25;;;4.70;;
75021;SDS011;63583;49.976;20.182;2023-11-21T05:48:00;8.95;;;4.78;;
75021;SDS011;63583;49.976;20.182;2023-11-21T05:50:26;9.43;;;4.32;;
75021;SDS011;63583;49.976;20.182;2023-11-21T05:52:52;10.65;;;4.22;;
75021;SDS011;63583;49.976;20.182;2023-11-21T05:55:18;8.00;;;4.15;;
75021;SDS011;63583;49.976;20.182;2023-11-21T05:57:46;6.68;;;4.15;;
75021;SDS011;63583;49.976;20.182;2023-11-21T06:00:12;6.85;;;4.25;;
75021;SDS011;63583;49.976;20.182;2023-11-21T06:02:43;8.32;;;4.78;;
75021;SDS011;63583;49.976;20.182;2023-11-21T06:05:10;9.20;;;4.82;;
75021;SDS011;63583;49.976;20.182;2023-11-21T06:07:37;8.15;;;5.50;;
75021;SDS011;63583;49.976;20.182;2023-11-21T06:10:04;11.27;;;5.60;;
75021;SDS011;63583;49.976;20.182;2023-11-21T06:12:36;10.20;;;5.10;;
75021;SDS011;63583;49.976;20.182;2023-11-21T06:15:03;13.40;;;5.80;;
75021;SDS011;63583;49.976;20.182;2023-11-21T06:17:33;9.07;;;5.43;;
75021;SDS011;63583;49.976;20.182;2023-11-21T06:20:03;10.38;;;5.72;;
75021;SDS011;63583;49.976;20.182;2023-11-21T06:22:41;11.52;;;6.18;;
75021;SDS011;63583;49.976;20.182;2023-11-21T06:25:08;14.18;;;6.45;;
75021;SDS011;63583;49.976;20.182;2023-11-21T06:27:38;15.32;;;6.47;;
75021;SDS011;63583;49.976;20.182;2023-11-21T06:30:05;10.88;;;6.00;;
75021;SDS011;63583;49.976;20.182;2023-11-21T06:32:32;15.45;;;7.00;;
75021;SDS011;63583;49.976;20.182;2023-11-21T06:34:58;12.48;;;6.78;;
75021;SDS011;63583;49.976;20.182;2023-11-21T06:37:27;11.85;;;6.70;;
75021;SDS011;63583;49.976;20.182;2023-11-21T06:39:54;12.32;;;6.78;;
75021;SDS011;63583;49.976;20.182;2023-11-21T06:42:22;12.50;;;7.10;;
75021;SDS011;63583;49.976;20.182;2023-11-21T06:44:49;13.80;;;7.65;;
75021;SDS011;63583;49.976;20.182;2023-11-21T06:47:17;15.73;;;8.40;;
75021;SDS011;63583;49.976;20.182;2023-11-21T06:49:43;15.20;;;7.63;;
75021;SDS011;63583;49.976;20.182;2023-11-21T06:52:09;16.77;;;8.90;;
75021;SDS011;63583;49.976;20.182;2023-11-21T06:54:36;15.20;;;9.02;;
75021;SDS011;63583;49.976;20.182;2023-11-21T06:57:02;18.52;;;9.88;;
75021;SDS011;63583;49.976;20.182;2023-11-21T06:59:28;16.50;;;8.68;;
75021;SDS011;63583;49.976;20.182;2023-11-21T07:01:54;16.52;;;8.80;;
75021;SDS011;63583;49.976;20.182;2023-11-21T07:04:20;14.20;;;7.57;;
75021;SDS011;63583;49.976;20.182;2023-11-21T07:06:46;15.07;;;8.55;;
75021;SDS011;63583;49.976;20.182;2023-11-21T07:09:12;17.15;;;8.70;;
75021;SDS011;63583;49.976;20.182;2023-11-21T07:11:38;15.45;;;8.65;;
75021;SDS011;63583;49.976;20.182;2023-11-21T07:14:04;14.52;;;8.55;;
75021;SDS011;63583;49.976;20.182;2023-11-21T07:16:37;14.43;;;8.60;;
75021;SDS011;63583;49.976;20.182;2023-11-21T07:19:03;15.18;;;9.55;;
75021;SDS011;63583;49.976;20.182;2023-11-21T07:21:32;14.48;;;7.88;;
75021;SDS011;63583;49.976;20.182;2023-11-21T07:24:02;14.32;;;8.45;;
75021;SDS011;63583;49.976;20.182;2023-11-21T07:26:29;16.15;;;8.50;;
75021;SDS011;63583;49.976;20.182;2023-11-21T07:28:56;13.68;;;8.70;;
75021;SDS011;63583;49.976;20.182;2023-11-21T07:31:22;14.65;;;8.80;;
75021;SDS011;63583;49.976;20.182;2023-11-21T07:33:49;16.70;;;8.30;;
75021;SDS011;63583;49.976;20.182;2023-11-21T07:36:16;14.85;;;7.95;;
75021;SDS011;63583;49.976;20.182;2023-11-21T07:38:49;15.30;;;8.48;;
75021;SDS011;63583;49.976;20.182;2023-11-21T07:41:15;13.23;;;8.75;;
75021;SDS011;63583;49.976;20.182;2023-11-21T07:43:41;17.98;;;9.27;;
75021;SDS011;63583;49.976;20.182;2023-11-21T07:46:07;15.23;;;8.60;;
75021;SDS011;63583;49.976;20.182;2023-11-21T07:48:34;13.57;;;7.75;;
75021;SDS011;63583;49.976;20.182;2023-11-21T07:51:00;16.42;;;8.68;;
75021;SDS011;63583;49.976;20.182;2023-11-21T07:53:29;15.48;;;7.88;;
75021;SDS011;63583;49.976;20.182;2023-11-21T07:55:55;15.00;;;8.32;;
75021;SDS011;63583;49.976;20.182;2023-11-21T07:58:22;14.50;;;7.93;;
75021;SDS011;63583;49.976;20.182;2023-11-21T08:00:49;17.58;;;8.88;;
75021;SDS011;63583;49.976;20.182;2023-11-21T08:03:15;13.00;;;7.78;;
75021;SDS011;63583;49.976;20.182;2023-11-21T08:05:42;14.25;;;7.53;;
75021;SDS011;63583;49.976;20.182;2023-11-21T08:08:08;11.95;;;7.45;;
75021;SDS011;63583;49.976;20.182;2023-11-21T08:10:34;15.30;;;8.80;;
75021;SDS011;63583;49.976;20.182;2023-11-21T08:13:01;17.00;;;8.35;;
75021;SDS011;63583;49.976;20.182;2023-11-21T08:15:29;11.68;;;7.53;;
75021;SDS011;63583;49.976;20.182;2023-11-21T08:17:57;13.88;;;7.97;;
75021;SDS011;63583;49.976;20.182;2023-11-21T08:20:24;17.98;;;8.65;;
75021;SDS011;63583;49.976;20.182;2023-11-21T08:22:50;15.75;;;8.30;;
75021;SDS011;63583;49.976;20.182;2023-11-21T08:25:18;19.67;;;8.52;;
75021;SDS011;63583;49.976;20.182;2023-11-21T08:27:45;13.07;;;7.82;;
75021;SDS011;63583;49.976;20.182;2023-11-21T08:30:11;17.58;;;8.82;;
75021;SDS011;63583;49.976;20.182;2023-11-21T08:32:39;15.50;;;8.68;;
75021;SDS011;63583;49.976;20.182;2023-11-21T08:35:07;16.27;;;8.40;;
75021;SDS011;63583;49.976;20.182;2023-11-21T08:37:33;16.95;;;9.07;;
75021;SDS011;63583;49.976;20.182;2023-11-21T08:40:03;15.55;;;9.20;;
75021;SDS011;63583;49.976;20.182;2023-11-21T08:42:34;18.73;;;10.02;;
75021;SDS011;63583;49.976;20.182;2023-11-21T08:45:00;20.77;;;10.70;;
75021;SDS011;63583;49.976;20.182;2023-11-21T08:47:27;17.52;;;9.60;;
75021;SDS011;63583;49.976;20.182;2023-11-21T08:49:53;17.60;;;9.38;;
75021;SDS011;63583;49.976;20.182;2023-11-21T08:52:19;18.10;;;9.43;;
75021;SDS011;63583;49.976;20.182;2023-11-21T08:54:51;18.50;;;9.27;;
75021;SDS011;63583;49.976;20.182;2023-11-21T08:57:25;18.52;;;9.38;;
75021;SDS011;63583;49.976;20.182;2023-11-21T08:59:51;19.15;;;9.20;;
75021;SDS011;63583;49.976;20.182;2023-11-21T09:02:21;19.27;;;9.27;;
75021;SDS011;63583;49.976;20.182;2023-11-21T09:04:50;16.83;;;9.25;;
75021;SDS011;63583;49.976;20.182;2023-11-21T09:07:19;16.23;;;8.13;;
75021;SDS011;63583;49.976;20.182;2023-11-21T09:12:15;19.42;;;9.43;;
75021;SDS011;63583;49.976;20.182;2023-11-21T09:14:41;18.05;;;8.93;;
75021;SDS011;63583;49.976;20.182;2023-11-21T09:17:09;17.92;;;10.07;;
75021;SDS011;63583;49.976;20.182;2023-11-21T09:19:38;22.15;;;10.05;;
75021;SDS011;63583;49.976;20.182;2023-11-21T09:22:04;16.70;;;9.82;;
75021;SDS011;63583;49.976;20.182;2023-11-21T09:24:30;16.48;;;9.45;;
75021;SDS011;63583;49.976;20.182;2023-11-21T09:26:57;19.25;;;9.85;;
75021;SDS011;63583;49.976;20.182;2023-11-21T09:29:23;19.25;;;10.60;;
75021;SDS011;63583;49.976;20.182;2023-11-21T09:31:49;20.40;;;10.60;;
75021;SDS011;63583;49.976;20.182;2023-11-21T09:34:16;23.33;;;11.43;;
75021;SDS011;63583;49.976;20.182;2023-11-21T09:36:46;19.40;;;10.18;;
75021;SDS011;63583;49.976;20.182;2023-11-21T09:44:30;19.25;;;9.35;;
75021;SDS011;63583;49.976;20.182;2023-11-21T09:47:16;18.00;;;9.95;;
75021;SDS011;63583;49.976;20.182;2023-11-21T09:49:47;19.05;;;10.68;;
75021;SDS011;63583;49.976;20.182;2023-11-21T09:52:27;20.67;;;11.45;;
75021;SDS011;63583;49.976;20.182;2023-11-21T09:54:54;21.83;;;11.40;;
75021;SDS011;63583;49.976;20.182;2023-11-21T09:57:24;17.38;;;10.55;;
75021;SDS011;63583;49.976;20.182;2023-11-21T09:59:51;20.13;;;9.90;;
75021;SDS011;63583;49.976;20.182;2023-11-21T10:02:24;20.77;;;10.07;;
75021;SDS011;63583;49.976;20.182;2023-11-21T10:04:53;17.38;;;10.55;;
75021;SDS011;63583;49.976;20.182;2023-11-21T10:07:20;22.60;;;11.85;;
75021;SDS011;63583;49.976;20.182;2023-11-21T10:09:46;20.23;;;9.68;;
75021;SDS011;63583;49.976;20.182;2023-11-21T10:12:15;17.50;;;10.88;;
75021;SDS011;63583;49.976;20.182;2023-11-21T10:14:42;19.27;;;10.77;;
75021;SDS011;63583;49.976;20.182;2023-11-21T10:17:10;19.40;;;11.10;;
75021;SDS011;63583;49.976;20.182;2023-11-21T10:19:38;19.20;;;10.50;;
75021;SDS011;63583;49.976;20.182;2023-11-21T10:22:05;21.88;;;10.52;;
75021;SDS011;63583;49.976;20.182;2023-11-21T10:24:32;18.35;;;10.57;;
75021;SDS011;63583;49.976;20.182;2023-11-21T10:26:58;18.17;;;10.27;;
75021;SDS011;63583;49.976;20.182;2023-11-21T10:29:30;18.33;;;10.27;;
75021;SDS011;63583;49.976;20.182;2023-11-21T10:31:56;18.23;;;10.13;;
75021;SDS011;63583;49.976;20.182;2023-11-21T10:34:24;19.10;;;10.48;;
75021;SDS011;63583;49.976;20.182;2023-11-21T10:36:50;18.42;;;10.00;;
75021;SDS011;63583;49.976;20.182;2023-11-21T10:39:19;18.92;;;9.93;;
75021;SDS011;63583;49.976;20.182;2023-11-21T10:41:46;15.73;;;8.90;;
75021;SDS011;63583;49.976;20.182;2023-11-21T10:44:15;21.17;;;10.02;;
75021;SDS011;63583;49.976;20.182;2023-11-21T10:46:49;18.40;;;9.32;;
75021;SDS011;63583;49.976;20.182;2023-11-21T10:49:18;20.40;;;9.95;;
75021;SDS011;63583;49.976;20.182;2023-11-21T10:51:45;18.13;;;9.70;;
75021;SDS011;63583;49.976;20.182;2023-11-21T10:54:17;18.33;;;9.30;;
75021;SDS011;63583;49.976;20.182;2023-11-21T10:56:44;14.35;;;8.93;;
75021;SDS011;63583;49.976;20.182;2023-11-21T10:59:11;14.98;;;8.27;;
75021;SDS011;63583;49.976;20.182;2023-11-21T11:01:42;13.93;;;8.50;;
75021;SDS011;63583;49.976;20.182;2023-11-21T11:04:08;16.63;;;8.48;;
75021;SDS011;63583;49.976;20.182;2023-11-21T11:06:41;14.82;;;7.80;;
75021;SDS011;63583;49.976;20.182;2023-11-21T11:09:13;16.42;;;8.25;;
75021;SDS011;63583;49.976;20.182;2023-11-21T11:11:40;16.48;;;8.77;;
75021;SDS011;63583;49.976;20.182;2023-11-21T11:14:08;27.70;;;17.52;;
75021;SDS011;63583;49.976;20.182;2023-11-21T11:16:38;13.65;;;7.57;;
75021;SDS011;63583;49.976;20.182;2023-11-21T11:19:07;20.67;;;12.07;;
75021;SDS011;63583;49.976;20.182;2023-11-21T11:21:39;13.63;;;7.35;;
75021;SDS011;63583;49.976;20.182;2023-11-21T11:27:01;14.55;;;7.65;;
75021;SDS011;63583;49.976;20.182;2023-11-21T11:29:44;14.98;;;8.55;;
75021;SDS011;63583;49.976;20.182;2023-11-21T11:38:16;20.90;;;9.85;;
75021;SDS011;63583;49.976;20.182;2023-11-21T11:40:46;19.02;;;10.07;;
75021;SDS011;63583;49.976;20.182;2023-11-21T11:43:13;19.83;;;12.30;;
75021;SDS011;63583;49.976;20.182;2023-11-21T11:45:39;15.40;;;9.00;;
75021;SDS011;63583;49.976;20.182;2023-11-21T11:48:07;12.52;;;7.88;;
75021;SDS011;63583;49.976;20.182;2023-11-21T11:50:41;15.13;;;8.35;;
75021;SDS011;63583;49.976;20.182;2023-11-21T11:53:26;16.02;;;8.07;;
75021;SDS011;63583;49.976;20.182;2023-11-21T11:56:18;15.23;;;7.75;;
75021;SDS011;63583;49.976;20.182;2023-11-21T11:59:00;20.92;;;12.25;;
75021;SDS011;63583;49.976;20.182;2023-11-21T12:01:32;27.85;;;15.40;;
75021;SDS011;63583;49.976;20.182;2023-11-21T12:06:43;13.65;;;8.50;;
75021;SDS011;63583;49.976;20.182;2023-11-21T12:09:19;19.38;;;8.63;;
75021;SDS011;63583;49.976;20.182;2023-11-21T12:11:47;12.68;;;7.28;;
75021;SDS011;63583;49.976;20.182;2023-11-21T12:14:14;11.45;;;6.10;;
75021;SDS011;63583;49.976;20.182;2023-11-21T12:16:41;9.05;;;5.72;;
75021;SDS011;63583;49.976;20.182;2023-11-21T12:19:09;10.93;;;6.28;;
75021;SDS011;63583;49.976;20.182;2023-11-21T12:21:36;8.85;;;5.75;;
75021;SDS011;63583;49.976;20.182;2023-11-21T12:24:02;10.40;;;5.28;;
75021;SDS011;63583;49.976;20.182;2023-11-21T12:26:29;8.77;;;5.72;;
75021;SDS011;63583;49.976;20.182;2023-11-21T12:28:55;10.98;;;6.15;;
75021;SDS011;63583;49.976;20.182;2023-11-21T12:31:21;11.93;;;5.30;;
75021;SDS011;63583;49.976;20.182;2023-11-21T12:33:48;10.73;;;5.20;;
75021;SDS011;63583;49.976;20.182;2023-11-21T12:36:15;10.02;;;5.10;;
75021;SDS011;63583;49.976;20.182;2023-11-21T12:38:41;15.52;;;7.82;;
75021;SDS011;63583;49.976;20.182;2023-11-21T12:41:07;25.52;;;16.20;;
75021;SDS011;63583;49.976;20.182;2023-11-21T12:43:35;16.77;;;10.70;;
75021;SDS011;63583;49.976;20.182;2023-11-21T12:46:05;10.13;;;5.05;;
75021;SDS011;63583;49.976;20.182;2023-11-21T12:48:32;7.50;;;4.50;;
75021;SDS011;63583;49.976;20.182;2023-11-21T12:50:58;12.15;;;6.38;;
75021;SDS011;63583;49.976;20.182;2023-11-21T12:53:25;12.75;;;6.07;;
75021;SDS011;63583;49.976;20.182;2023-11-21T12:55:51;9.65;;;5.30;;
75021;SDS011;63583;49.976;20.182;2023-11-21T12:58:17;12.70;;;5.20;;
75021;SDS011;63583;49.976;20.182;2023-11-21T13:00:46;10.90;;;5.32;;
75021;SDS011;63583;49.976;20.182;2023-11-21T13:03:13;8.18;;;5.63;;
75021;SDS011;63583;49.976;20.182;2023-11-21T13:05:43;11.50;;;6.28;;
75021;SDS011;63583;49.976;20.182;2023-11-21T13:08:11;12.85;;;5.82;;
75021;SDS011;63583;49.976;20.182;2023-11-21T13:10:39;10.38;;;4.97;;
75021;SDS011;63583;49.976;20.182;2023-11-21T13:13:08;8.60;;;5.38;;
75021;SDS011;63583;49.976;20.182;2023-11-21T13:15:39;8.93;;;5.28;;
75021;SDS011;63583;49.976;20.182;2023-11-21T13:18:09;8.20;;;4.95;;
75021;SDS011;63583;49.976;20.182;2023-11-21T13:20:36;8.35;;;5.45;;
75021;SDS011;63583;49.976;20.182;2023-11-21T13:23:06;9.30;;;5.00;;
75021;SDS011;63583;49.976;20.182;2023-11-21T13:25:33;10.77;;;5.60;;
75021;SDS011;63583;49.976;20.182;2023-11-21T13:28:00;8.65;;;5.20;;
75021;SDS011;63583;49.976;20.182;2023-11-21T13:30:28;13.52;;;6.72;;
75021;SDS011;63583;49.976;20.182;2023-11-21T13:33:05;14.32;;;6.03;;
75021;SDS011;63583;49.976;20.182;2023-11-21T13:35:37;9.57;;;5.50;;
75021;SDS011;63583;49.976;20.182;2023-11-21T13:38:08;11.18;;;5.82;;
75021;SDS011;63583;49.976;20.182;2023-11-21T13:40:35;10.30;;;5.85;;
75021;SDS011;63583;49.976;20.182;2023-11-21T13:43:12;10.57;;;6.70;;
75021;SDS011;63583;49.976;20.182;2023-11-21T13:45:39;11.40;;;6.30;;
75021;SDS011;63583;49.976;20.182;2023-11-21T13:48:06;11.13;;;6.63;;
75021;SDS011;63583;49.976;20.182;2023-11-21T13:50:36;11.90;;;6.03;;
75021;SDS011;63583;49.976;20.182;2023-11-21T13:53:03;10.63;;;6.43;;
75021;SDS011;63583;49.976;20.182;2023-11-21T13:55:49;15.05;;;6.57;;
75021;SDS011;63583;49.976;20.182;2023-11-21T13:58:17;10.98;;;6.28;;
75021;SDS011;63583;49.976;20.182;2023-11-21T14:00:50;13.43;;;6.53;;
75021;SDS011;63583;49.976;20.182;2023-11-21T14:06:03;13.57;;;7.22;;
75021;SDS011;63583;49.976;20.182;2023-11-21T14:08:34;11.18;;;6.43;;
75021;SDS011;63583;49.976;20.182;2023-11-21T14:11:00;13.23;;;7.28;;
75021;SDS011;63583;49.976;20.182;2023-11-21T14:13:26;11.02;;;6.03;;
75021;SDS011;63583;49.976;20.182;2023-11-21T14:15:52;11.50;;;6.85;;
75021;SDS011;63583;49.976;20.182;2023-11-21T14:18:23;10.73;;;7.10;;
75021;SDS011;63583;49.976;20.182;2023-11-21T14:20:56;12.30;;;7.63;;
75021;SDS011;63583;49.976;20.182;2023-11-21T14:23:22;11.45;;;6.82;;
75021;SDS011;63583;49.976;20.182;2023-11-21T14:25:48;11.65;;;6.80;;
75021;SDS011;63583;49.976;20.182;2023-11-21T14:28:15;11.40;;;7.40;;
75021;SDS011;63583;49.976;20.182;2023-11-21T14:30:41;11.65;;;7.55;;
75021;SDS011;63583;49.976;20.182;2023-11-21T14:33:08;11.32;;;7.13;;
75021;SDS011;63583;49.976;20.182;2023-11-21T14:35:35;12.30;;;6.88;;
75021;SDS011;63583;49.976;20.182;2023-11-21T14:38:01;11.50;;;7.50;;
75021;SDS011;63583;49.976;20.182;2023-11-21T14:40:30;14.05;;;7.30;;
75021;SDS011;63583;49.976;20.182;2023-11-21T14:43:00;15.13;;;8.23;;
75021;SDS011;63583;49.976;20.182;2023-11-21T14:45:26;14.40;;;8.02;;
75021;SDS011;63583;49.976;20.182;2023-11-21T14:47:52;14.52;;;8.13;;
75021;SDS011;63583;49.976;20.182;2023-11-21T14:50:31;13.38;;;9.10;;